createdAt,value
2022-11-09T00:01:04.355Z,8.48
2022-11-09T00:03:32.046Z,7.97
2022-11-09T00:06:00.390Z,7.28
2022-11-09T00:08:28.621Z,8.57
2022-11-09T00:11:01.879Z,8.23
2022-11-09T00:13:29.366Z,7.72
2022-11-09T00:16:00.320Z,8.95
2022-11-09T00:18:28.517Z,8.40
2022-11-09T00:20:56.415Z,7.93
2022-11-09T00:23:23.825Z,8.32
2022-11-09T00:25:51.203Z,8.30
2022-11-09T00:28:18.698Z,8.18
2022-11-09T00:31:02.640Z,7.93
2022-11-09T00:33:31.371Z,8.07
2022-11-09T00:35:59.043Z,8.98
2022-11-09T00:38:26.408Z,7.97
2022-11-09T00:40:53.931Z,8.27
2022-11-09T00:43:21.717Z,8.25
2022-11-09T00:45:49.851Z,8.90
2022-11-09T00:48:17.487Z,9.00
2022-11-09T00:56:57.257Z,8.02
2022-11-09T00:59:24.904Z,8.10
2022-11-09T01:01:52.359Z,7.32
2022-11-09T01:04:19.846Z,7.50
2022-11-09T01:06:47.367Z,7.88
2022-11-09T01:09:14.780Z,7.03
2022-11-09T01:11:42.262Z,7.70
2022-11-09T01:14:10.583Z,7.78
2022-11-09T01:16:39.094Z,7.07
2022-11-09T01:19:06.955Z,7.68
2022-11-09T01:21:34.415Z,7.97
2022-11-09T01:24:01.897Z,7.85
2022-11-09T01:26:30.364Z,7.93
2022-11-09T01:28:57.800Z,7.03
2022-11-09T01:31:25.977Z,7.28
2022-11-09T01:33:53.911Z,7.25
2022-11-09T01:36:23.406Z,6.88
2022-11-09T01:38:51.731Z,6.97
2022-11-09T01:41:22.391Z,7.45
2022-11-09T01:44:08.615Z,6.57
2022-11-09T01:47:00.969Z,8.35
2022-11-09T01:49:59.541Z,7.80
2022-11-09T01:52:32.133Z,8.18
2022-11-09T01:55:03.607Z,8.82
2022-11-09T01:57:36.607Z,8.90
2022-11-09T02:00:14.239Z,10.05
2022-11-09T02:03:05.221Z,10.98
2022-11-09T02:05:36.189Z,9.43
2022-11-09T02:08:06.547Z,10.95
2022-11-09T02:10:42.566Z,11.68
2022-11-09T02:13:12.113Z,11.98
2022-11-09T02:15:45.267Z,11.63
2022-11-09T02:18:13.356Z,11.95
2022-11-09T02:20:50.509Z,11.40
2022-11-09T02:23:19.376Z,12.32
2022-11-09T02:25:54.791Z,11.23
2022-11-09T02:28:23.872Z,11.68
2022-11-09T02:30:52.982Z,11.23
2022-11-09T02:33:20.933Z,10.57
2022-11-09T02:35:49.362Z,12.15
2022-11-09T02:38:16.852Z,13.20
2022-11-09T02:40:48.169Z,12.77
2022-11-09T02:43:18.477Z,12.10
2022-11-09T02:45:46.505Z,12.13
2022-11-09T02:48:14.797Z,13.10
2022-11-09T02:50:42.307Z,13.82
2022-11-09T02:53:09.820Z,15.38
2022-11-09T02:55:41.788Z,14.48
2022-11-09T02:58:09.754Z,14.98
2022-11-09T03:00:38.097Z,14.65
2022-11-09T03:03:06.423Z,13.32
2022-11-09T03:05:33.927Z,12.70
2022-11-09T03:08:02.612Z,13.25
2022-11-09T03:10:33.429Z,13.03
2022-11-09T03:13:01.934Z,12.10
2022-11-09T03:15:29.865Z,11.93
2022-11-09T03:17:57.279Z,11.95
2022-11-09T03:20:25.421Z,12.80
2022-11-09T03:22:57.695Z,11.40
2022-11-09T03:28:04.968Z,11.07
2022-11-09T03:30:32.630Z,11.48
2022-11-09T03:33:02.364Z,12.45
2022-11-09T03:35:30.146Z,12.45
2022-11-09T03:37:57.634Z,12.25
2022-11-09T03:40:26.036Z,12.80
2022-11-09T03:42:53.522Z,12.73
2022-11-09T03:45:21.122Z,11.85
2022-11-09T03:47:48.613Z,12.43
2022-11-09T03:50:17.668Z,12.68
2022-11-09T03:52:46.456Z,13.57
2022-11-09T03:55:14.943Z,12.55
2022-11-09T03:57:44.102Z,12.20
2022-11-09T04:00:12.721Z,12.80
2022-11-09T04:02:40.546Z,12.73
2022-11-09T04:05:08.734Z,12.25
2022-11-09T04:07:36.427Z,13.05
2022-11-09T04:10:05.095Z,12.77
2022-11-09T04:12:32.489Z,12.77
2022-11-09T04:15:00.163Z,11.95
2022-11-09T04:17:27.622Z,11.23
2022-11-09T04:19:55.109Z,10.15
2022-11-09T04:22:22.549Z,9.38
2022-11-09T04:24:50.175Z,10.35
2022-11-09T04:27:18.510Z,9.82
2022-11-09T04:29:46.036Z,10.68
2022-11-09T04:32:13.529Z,10.07
2022-11-09T04:34:41.491Z,11.15
2022-11-09T04:37:09.790Z,12.40
2022-11-09T04:39:37.193Z,13.35
2022-11-09T04:42:04.658Z,12.70
2022-11-09T04:44:32.070Z,13.43
2022-11-09T04:46:59.440Z,12.65
2022-11-09T04:49:26.887Z,13.00
2022-11-09T04:51:54.665Z,13.07
2022-11-09T04:54:22.229Z,14.25
2022-11-09T04:56:49.633Z,12.88
2022-11-09T04:59:17.392Z,13.30
2022-11-09T05:01:44.854Z,13.05
2022-11-09T05:04:12.537Z,13.07
2022-11-09T05:06:40.224Z,13.00
2022-11-09T05:09:08.438Z,12.35
2022-11-09T05:11:36.516Z,12.63
2022-11-09T05:14:04.157Z,14.25
2022-11-09T05:16:32.065Z,13.32
2022-11-09T05:18:59.637Z,14.23
2022-11-09T05:21:27.711Z,12.68
2022-11-09T05:24:02.521Z,12.30
2022-11-09T05:26:41.124Z,13.40
2022-11-09T05:29:11.345Z,13.43
2022-11-09T05:31:39.837Z,13.30
2022-11-09T05:34:08.082Z,13.07
2022-11-09T05:36:35.506Z,13.15
2022-11-09T05:39:03.455Z,13.55
2022-11-09T05:41:30.899Z,14.48
2022-11-09T05:43:58.251Z,13.55
2022-11-09T05:46:26.340Z,14.63
2022-11-09T05:48:53.795Z,14.75
2022-11-09T05:51:21.250Z,15.43
2022-11-09T05:53:48.750Z,15.35
2022-11-09T05:56:16.161Z,15.60
2022-11-09T05:58:43.560Z,15.90
2022-11-09T06:01:14.349Z,14.68
2022-11-09T06:03:44.335Z,15.07
2022-11-09T06:06:14.023Z,13.85
2022-11-09T06:08:42.441Z,13.98
2022-11-09T06:11:12.014Z,14.20
2022-11-09T06:13:39.477Z,13.75
2022-11-09T06:16:07.387Z,14.35
2022-11-09T06:18:36.565Z,15.23
2022-11-09T06:21:05.478Z,15.63
2022-11-09T06:23:33.391Z,14.27
2022-11-09T06:26:03.713Z,13.63
2022-11-09T06:28:31.718Z,13.38
2022-11-09T06:31:00.480Z,13.63
2022-11-09T06:33:30.289Z,15.45
2022-11-09T06:35:58.557Z,14.90
2022-11-09T06:38:29.235Z,16.35
2022-11-09T06:40:59.365Z,15.43
2022-11-09T06:43:27.928Z,16.95
2022-11-09T06:45:55.598Z,15.85
2022-11-09T06:48:23.615Z,16.38
2022-11-09T06:50:51.095Z,17.75
2022-11-09T06:53:18.840Z,17.45
2022-11-09T06:55:50.543Z,17.13
2022-11-09T06:58:19.823Z,17.95
2022-11-09T07:00:47.553Z,18.85
2022-11-09T07:03:16.424Z,19.38
2022-11-09T07:05:44.648Z,19.23
2022-11-09T07:08:12.949Z,18.85
2022-11-09T07:10:40.742Z,18.83
2022-11-09T07:13:08.848Z,19.30
2022-11-09T07:15:37.759Z,20.55
2022-11-09T07:18:08.229Z,20.30
2022-11-09T07:20:35.638Z,21.08
2022-11-09T07:23:03.119Z,20.85
2022-11-09T07:25:30.626Z,21.92
2022-11-09T07:28:04.047Z,21.17
2022-11-09T07:30:31.683Z,21.48
2022-11-09T07:33:09.117Z,22.20
2022-11-09T07:35:37.965Z,23.40
2022-11-09T07:38:05.510Z,23.40
2022-11-09T07:40:33.303Z,24.23
2022-11-09T07:43:01.782Z,24.30
2022-11-09T07:45:30.044Z,25.25
2022-11-09T07:47:59.027Z,24.75
2022-11-09T07:50:27.529Z,26.23
2022-11-09T07:52:56.768Z,26.08
2022-11-09T07:55:25.326Z,26.38
2022-11-09T07:58:00.314Z,26.95
2022-11-09T08:00:30.187Z,27.23
2022-11-09T08:02:57.684Z,26.52
2022-11-09T08:05:25.932Z,27.77
2022-11-09T08:07:57.987Z,28.02
2022-11-09T08:10:26.988Z,27.42
2022-11-09T08:13:14.601Z,27.58
2022-11-09T08:15:42.536Z,27.63
2022-11-09T08:18:21.923Z,28.98
2022-11-09T08:20:50.215Z,31.85
2022-11-09T08:23:20.840Z,33.65
2022-11-09T08:25:50.380Z,33.08
2022-11-09T08:28:18.974Z,33.75
2022-11-09T08:30:54.462Z,33.33
2022-11-09T08:33:21.864Z,34.13
2022-11-09T08:35:53.226Z,35.53
2022-11-09T08:38:21.209Z,34.38
2022-11-09T08:40:48.759Z,34.15
2022-11-09T08:43:16.185Z,33.10
2022-11-09T08:45:43.730Z,34.42
2022-11-09T08:48:12.563Z,32.28
2022-11-09T08:50:40.116Z,31.55
2022-11-09T08:53:08.214Z,32.45
2022-11-09T08:55:35.646Z,30.98
2022-11-09T08:58:04.313Z,30.48
2022-11-09T09:00:32.111Z,32.75
2022-11-09T09:03:03.142Z,31.48
2022-11-09T09:05:30.595Z,31.95
2022-11-09T09:07:59.935Z,32.72
2022-11-09T09:10:27.631Z,33.10
2022-11-09T09:12:55.606Z,33.45
2022-11-09T09:15:23.619Z,32.58
2022-11-09T09:17:51.067Z,35.25
2022-11-09T09:20:18.527Z,34.05
2022-11-09T09:22:46.205Z,35.53
2022-11-09T09:25:13.848Z,35.55
2022-11-09T09:27:43.324Z,32.75
2022-11-09T09:30:11.432Z,34.10
2022-11-09T09:32:38.861Z,33.13
2022-11-09T09:35:06.687Z,34.38
2022-11-09T09:37:34.057Z,33.22
2022-11-09T09:40:01.363Z,34.17
2022-11-09T09:42:36.180Z,34.63
2022-11-09T09:45:18.116Z,37.10
2022-11-09T09:48:03.933Z,36.22
2022-11-09T09:50:53.551Z,36.15
2022-11-09T09:53:32.481Z,38.95
2022-11-09T09:56:05.271Z,37.97
2022-11-09T09:58:35.041Z,37.80
2022-11-09T10:01:12.715Z,39.40
2022-11-09T10:03:40.160Z,38.78
2022-11-09T10:06:25.605Z,39.10
2022-11-09T10:09:08.393Z,41.03
2022-11-09T10:11:35.764Z,41.45
2022-11-09T10:14:21.532Z,40.90
2022-11-09T10:17:16.470Z,40.67
2022-11-09T10:19:46.836Z,40.65
2022-11-09T10:23:03.088Z,41.25
2022-11-09T10:25:57.644Z,40.00
2022-11-09T10:28:26.771Z,39.63
2022-11-09T10:30:54.373Z,41.85
2022-11-09T10:33:22.912Z,42.63
2022-11-09T10:36:31.024Z,42.30
2022-11-09T10:39:01.359Z,41.05
2022-11-09T10:41:47.524Z,41.35
2022-11-09T10:44:33.352Z,41.78
2022-11-09T10:47:19.672Z,41.55
2022-11-09T10:50:14.629Z,40.65
2022-11-09T10:53:16.031Z,41.40
2022-11-09T10:56:21.743Z,42.60
2022-11-09T10:59:45.493Z,42.70
2022-11-09T11:02:31.209Z,43.90
2022-11-09T11:05:17.131Z,42.78
2022-11-09T11:08:24.975Z,43.90
2022-11-09T11:11:37.596Z,41.50
2022-11-09T11:14:34.260Z,42.30
2022-11-09T11:17:42.611Z,42.50
2022-11-09T11:20:34.802Z,39.95
2022-11-09T11:23:23.440Z,41.38
2022-11-09T11:26:30.421Z,40.17
2022-11-09T11:29:19.531Z,39.50
2022-11-09T11:32:14.751Z,40.67
2022-11-09T11:35:01.835Z,38.65
2022-11-09T11:38:01.871Z,38.45
2022-11-09T11:40:59.819Z,37.50
2022-11-09T11:43:53.458Z,39.25
2022-11-09T11:46:48.848Z,39.05
2022-11-09T11:49:52.687Z,39.83
2022-11-09T11:53:13.348Z,39.05
2022-11-09T11:56:17.984Z,39.03
2022-11-09T11:59:18.745Z,40.15
2022-11-09T12:02:28.160Z,38.95
2022-11-09T12:05:47.632Z,39.78
2022-11-09T12:08:39.436Z,41.10
2022-11-09T12:11:49.499Z,42.53
2022-11-09T12:14:47.069Z,41.67
2022-11-09T12:18:07.702Z,41.28
2022-11-09T12:20:58.746Z,42.05
2022-11-09T12:24:26.449Z,41.50
2022-11-09T12:27:32.973Z,42.13
2022-11-09T12:30:26.003Z,41.53
2022-11-09T12:33:32.316Z,39.70
2022-11-09T12:37:02.663Z,51.47
2022-11-09T12:39:54.472Z,47.50
2022-11-09T12:42:45.293Z,45.33
2022-11-09T12:45:37.915Z,44.55
2022-11-09T12:48:32.645Z,45.33
2022-11-09T12:51:19.293Z,46.15
2022-11-09T12:54:11.291Z,46.05
2022-11-09T12:57:04.562Z,45.35
2022-11-09T12:59:56.121Z,46.92
2022-11-09T13:03:01.425Z,46.70
2022-11-09T13:05:49.634Z,44.30
2022-11-09T13:08:36.558Z,40.95
2022-11-09T13:11:29.826Z,42.60
2022-11-09T13:14:30.525Z,41.33
2022-11-09T13:17:28.550Z,40.90
2022-11-09T13:26:48.997Z,40.22
2022-11-09T13:29:40.790Z,39.20
2022-11-09T13:32:33.477Z,41.40
2022-11-09T13:35:59.314Z,36.38
2022-11-09T13:38:45.409Z,32.20
2022-11-09T13:41:32.029Z,32.00
2022-11-09T13:44:27.411Z,31.58
2022-11-09T13:47:32.902Z,28.83
2022-11-09T13:50:22.662Z,30.45
2022-11-09T13:53:37.636Z,30.52
2022-11-09T13:56:41.130Z,31.02
2022-11-09T13:59:33.745Z,29.58
2022-11-09T14:02:23.626Z,29.90
2022-11-09T14:05:26.263Z,30.92
2022-11-09T14:11:33.454Z,32.58
2022-11-09T14:14:46.817Z,32.83
2022-11-09T14:17:41.710Z,32.85
2022-11-09T14:20:34.835Z,34.03
2022-11-09T14:23:23.468Z,33.08
2022-11-09T14:26:16.923Z,33.42
2022-11-09T14:29:21.980Z,32.40
2022-11-09T14:32:26.685Z,31.20
2022-11-09T14:35:32.632Z,31.83
2022-11-09T14:38:38.613Z,33.67
2022-11-09T14:41:27.264Z,32.10
2022-11-09T14:44:40.421Z,32.92
2022-11-09T14:50:37.458Z,31.17
2022-11-09T14:53:29.029Z,31.00
2022-11-09T14:56:18.438Z,31.45
2022-11-09T14:59:16.859Z,30.48
2022-11-09T15:02:17.609Z,30.17
2022-11-09T15:05:06.282Z,30.30
2022-11-09T15:07:52.624Z,30.13
2022-11-09T15:10:38.477Z,29.98
2022-11-09T15:13:34.852Z,28.80
2022-11-09T15:16:29.306Z,29.83
2022-11-09T15:19:28.539Z,28.83
2022-11-09T15:22:50.379Z,27.23
2022-11-09T15:25:54.442Z,28.27
2022-11-09T15:28:47.251Z,26.90
2022-11-09T15:31:33.268Z,25.35
2022-11-09T15:34:23.806Z,26.83
2022-11-09T15:37:28.354Z,26.65
2022-11-09T15:40:20.240Z,25.55
2022-11-09T15:43:06.094Z,24.13
2022-11-09T15:45:52.131Z,25.17
2022-11-09T15:48:42.048Z,22.55
2022-11-09T15:51:30.334Z,23.55
2022-11-09T15:54:16.899Z,24.02
2022-11-09T15:57:02.737Z,22.50
2022-11-09T15:59:50.464Z,22.00
2022-11-09T16:02:36.311Z,19.60
2022-11-09T16:05:23.290Z,17.27
2022-11-09T16:08:09.530Z,17.35
2022-11-09T16:10:55.492Z,17.00
2022-11-09T16:13:41.499Z,16.48
2022-11-09T16:16:28.144Z,15.73
2022-11-09T16:19:15.268Z,15.68
2022-11-09T16:22:02.760Z,16.13
2022-11-09T16:24:48.684Z,15.93
2022-11-09T16:27:49.592Z,17.55
2022-11-09T16:30:36.662Z,16.83
2022-11-09T16:33:22.591Z,16.67
2022-11-09T16:36:13.910Z,16.15
2022-11-09T16:39:09.294Z,16.23
2022-11-09T16:41:55.332Z,16.35
2022-11-09T16:44:43.975Z,15.95
2022-11-09T16:47:29.705Z,15.73
2022-11-09T16:50:15.949Z,16.45
2022-11-09T16:53:01.654Z,15.80
2022-11-09T16:55:47.571Z,15.43
2022-11-09T16:58:33.644Z,16.50
2022-11-09T17:01:23.605Z,16.75
2022-11-09T17:04:09.972Z,15.23
2022-11-09T17:06:55.934Z,15.07
2022-11-09T17:09:42.095Z,15.95
2022-11-09T17:12:30.395Z,14.55
2022-11-09T17:15:17.119Z,16.45
2022-11-09T17:18:03.103Z,16.65
2022-11-09T17:20:50.647Z,18.13
2022-11-09T17:23:37.383Z,20.08
2022-11-09T17:26:23.928Z,19.27
2022-11-09T17:29:09.938Z,20.90
2022-11-09T17:31:55.769Z,20.20
2022-11-09T17:34:41.498Z,19.30
2022-11-09T17:37:28.910Z,19.60
2022-11-09T17:40:17.239Z,18.63
2022-11-09T17:43:04.017Z,20.60
2022-11-09T17:45:50.057Z,23.48
2022-11-09T17:48:37.838Z,22.55
2022-11-09T17:51:25.182Z,21.48
2022-11-09T17:54:11.173Z,21.40
2022-11-09T17:56:57.342Z,21.77
2022-11-09T17:59:43.119Z,20.67
2022-11-09T18:02:28.917Z,20.63
2022-11-09T18:05:16.476Z,20.15
2022-11-09T18:08:02.346Z,22.45
2022-11-09T18:10:50.898Z,22.67
2022-11-09T18:13:37.102Z,21.65
2022-11-09T18:16:23.498Z,21.13
2022-11-09T18:19:09.328Z,20.50
2022-11-09T18:21:55.275Z,19.88
2022-11-09T18:24:41.310Z,18.77
2022-11-09T18:27:30.307Z,19.30
2022-11-09T18:30:17.022Z,19.95
2022-11-09T18:33:03.164Z,20.73
2022-11-09T18:36:07.963Z,21.27
2022-11-09T18:38:58.484Z,21.65
2022-11-09T18:41:44.849Z,20.13
2022-11-09T18:44:30.769Z,20.38
2022-11-09T18:47:16.448Z,20.52
2022-11-09T18:50:02.560Z,19.35
2022-11-09T18:52:48.124Z,18.75
2022-11-09T18:55:34.310Z,19.50
2022-11-09T18:58:20.336Z,22.40
2022-11-09T19:01:07.829Z,21.65
2022-11-09T19:03:59.033Z,21.65
2022-11-09T19:06:45.404Z,22.33
2022-11-09T19:09:35.468Z,22.05
2022-11-09T19:12:21.551Z,22.33
2022-11-09T19:15:08.793Z,23.30
2022-11-09T19:17:54.839Z,22.10
2022-11-09T19:20:40.878Z,23.80
2022-11-09T19:23:33.910Z,23.60
2022-11-09T19:26:21.881Z,24.80
2022-11-09T19:29:09.101Z,25.52
2022-11-09T19:31:55.089Z,24.98
2022-11-09T19:34:42.774Z,26.67
2022-11-09T19:37:29.059Z,26.17
2022-11-09T19:40:15.669Z,22.50
2022-11-09T19:43:01.301Z,21.13
2022-11-09T19:45:47.218Z,20.10
2022-11-09T19:48:37.336Z,19.42
2022-11-09T19:51:24.023Z,20.52
2022-11-09T19:54:11.924Z,21.33
2022-11-09T19:56:57.553Z,21.80
2022-11-09T19:59:43.534Z,21.73
2022-11-09T20:02:29.503Z,21.77
2022-11-09T20:05:15.575Z,21.80
2022-11-09T20:08:05.309Z,21.52
2022-11-09T20:10:52.359Z,21.33
2022-11-09T20:13:40.390Z,22.10
2022-11-09T20:16:26.642Z,23.65
2022-11-09T20:19:13.538Z,24.73
2022-11-09T20:22:00.164Z,22.95
2022-11-09T20:24:46.177Z,23.20
2022-11-09T20:27:32.678Z,23.38
2022-11-09T20:30:18.569Z,23.20
2022-11-09T20:33:04.647Z,24.98
2022-11-09T20:35:56.871Z,23.70
2022-11-09T20:38:42.809Z,23.27
2022-11-09T20:41:28.810Z,24.17
2022-11-09T20:44:14.686Z,25.08
2022-11-09T20:47:00.431Z,24.58
2022-11-09T20:49:47.359Z,24.25
2022-11-09T20:52:33.408Z,24.30
2022-11-09T20:55:19.116Z,24.45
2022-11-09T20:58:06.028Z,25.75
2022-11-09T21:01:11.625Z,24.48
2022-11-09T21:03:57.324Z,25.50
2022-11-09T21:06:43.304Z,26.30
2022-11-09T21:09:29.143Z,26.10
2022-11-09T21:12:24.969Z,26.83
2022-11-09T21:15:11.510Z,27.35
2022-11-09T21:17:57.472Z,28.75
2022-11-09T21:20:43.912Z,27.70
2022-11-09T21:23:48.211Z,29.27
2022-11-09T21:26:53.131Z,30.33
2022-11-09T21:29:57.182Z,30.98
2022-11-09T21:32:42.940Z,30.20
2022-11-09T21:35:28.799Z,30.23
2022-11-09T21:38:14.721Z,31.58
2022-11-09T21:41:21.743Z,30.15
2022-11-09T21:44:09.193Z,30.42
2022-11-09T21:46:55.121Z,32.08
2022-11-09T21:49:41.065Z,30.77
2022-11-09T21:52:26.883Z,31.35
2022-11-09T21:55:12.940Z,32.25
2022-11-09T21:57:59.211Z,33.58
2022-11-09T22:00:45.134Z,34.45
2022-11-09T22:03:31.171Z,36.05
2022-11-09T22:06:17.347Z,36.08
2022-11-09T22:09:03.744Z,36.30
2022-11-09T22:12:07.940Z,36.53
2022-11-09T22:15:12.551Z,38.17
2022-11-09T22:17:58.366Z,36.53
2022-11-09T22:20:56.283Z,36.22
2022-11-09T22:23:42.105Z,35.03
2022-11-09T22:26:29.642Z,34.80
2022-11-09T22:29:15.319Z,35.83
2022-11-09T22:32:01.547Z,33.33
2022-11-09T22:34:47.338Z,34.33
2022-11-09T22:37:33.014Z,32.88
2022-11-09T22:40:19.009Z,32.60
2022-11-09T22:43:04.800Z,32.47
2022-11-09T22:45:50.674Z,31.10
2022-11-09T22:48:37.886Z,31.55
2022-11-09T22:51:23.895Z,30.70
2022-11-09T22:54:09.622Z,28.83
2022-11-09T22:56:55.444Z,28.58
2022-11-09T22:59:41.814Z,27.75
2022-11-09T23:02:28.888Z,26.75
2022-11-09T23:05:15.242Z,27.48
2022-11-09T23:08:01.015Z,27.40
2022-11-09T23:10:54.980Z,26.27
2022-11-09T23:13:41.167Z,27.23
2022-11-09T23:16:27.154Z,27.00
2022-11-09T23:19:12.853Z,26.92
2022-11-09T23:21:58.739Z,28.48
2022-11-09T23:25:03.229Z,27.33
2022-11-09T23:27:52.722Z,27.05
2022-11-09T23:30:39.072Z,26.55
2022-11-09T23:33:25.180Z,26.58
2022-11-09T23:36:11.439Z,26.73
2022-11-09T23:38:57.235Z,26.05
2022-11-09T23:41:43.149Z,25.60
2022-11-09T23:44:29.096Z,25.63
2022-11-09T23:47:14.950Z,24.95
2022-11-09T23:50:00.782Z,23.98
2022-11-09T23:52:46.491Z,24.33
2022-11-09T23:55:32.515Z,23.38
2022-11-09T23:58:18.913Z,23.73
